Time;durP1;ratioP1;P1;durP2;ratioP2;P2;SDS_P1;SDS_P2;PMS_P1;PMS_P2;Temp;Humidity;BMP_temperature;BMP_pressure;BME280_temperature;BME280_humidity;BME280_pressure;Samples;Min_cycle;Max_cycle;Signal;HPM_P1;HPM_P2
2022/08/17 00:00:33;;;;;;;28.60;24.13;;;;;;;;;;4981112;28;20100;-80
2022/08/17 00:03:26;;;;;;;29.55;25.40;;;;;;;;;;4981337;28;20086;-80
2022/08/17 00:05:52;;;;;;;28.05;25.05;;;;;;;;;;4981007;28;20051;-79
2022/08/17 00:08:27;;;;;;;32.55;26.42;;;;;;;;;;4980904;28;20070;-80
2022/08/17 00:10:54;;;;;;;30.55;25.73;;;;;;;;;;4980069;28;20117;-80
2022/08/17 00:13:23;;;;;;;31.58;25.45;;;;;;;;;;4981328;28;20086;-80
2022/08/17 00:15:49;;;;;;;29.05;23.90;;;;;;;;;;4981041;28;20143;-80
2022/08/17 00:18:15;;;;;;;29.05;23.70;;;;;;;;;;4980515;28;20131;-80
2022/08/17 00:20:41;;;;;;;31.27;25.92;;;;;;;;;;4980091;28;20051;-80
2022/08/17 00:23:09;;;;;;;32.03;25.98;;;;;;;;;;4979487;28;20434;-80
2022/08/17 00:25:35;;;;;;;34.80;24.92;;;;;;;;;;4979586;28;20051;-80
2022/08/17 00:28:01;;;;;;;28.80;25.38;;;;;;;;;;4966768;28;20405;-80
2022/08/17 00:30:28;;;;;;;32.85;26.33;;;;;;;;;;4979354;28;20074;-80
2022/08/17 00:32:54;;;;;;;31.70;26.20;;;;;;;;;;4979227;28;20050;-80
2022/08/17 00:35:26;;;;;;;31.77;27.35;;;;;;;;;;4979585;28;20054;-80
2022/08/17 00:37:52;;;;;;;34.50;27.73;;;;;;;;;;4979735;28;20195;-80
2022/08/17 00:40:19;;;;;;;29.77;24.85;;;;;;;;;;4979731;28;20513;-80
2022/08/17 00:42:45;;;;;;;31.38;27.27;;;;;;;;;;4979919;28;20047;-80
2022/08/17 00:45:13;;;;;;;29.45;24.80;;;;;;;;;;4998644;23;20092;-77
2022/08/17 00:47:39;;;;;;;28.42;23.15;;;;;;;;;;4994027;28;20612;-77
2022/08/17 00:50:07;;;;;;;30.05;23.75;;;;;;;;;;4994051;28;20120;-77
2022/08/17 00:52:35;;;;;;;28.45;24.83;;;;;;;;;;4994178;28;20047;-77
2022/08/17 00:55:02;;;;;;;27.55;22.40;;;;;;;;;;4993969;28;20136;-77
2022/08/17 00:57:34;;;;;;;26.95;23.13;;;;;;;;;;4992058;28;20520;-77
2022/08/17 01:00:05;;;;;;;26.77;22.90;;;;;;;;;;4993115;28;20489;-77
2022/08/17 01:02:33;;;;;;;23.13;20.52;;;;;;;;;;4993839;28;20077;-77
2022/08/17 01:04:59;;;;;;;23.17;20.58;;;;;;;;;;4993552;28;20053;-77
2022/08/17 01:07:26;;;;;;;21.40;19.10;;;;;;;;;;4993508;28;20100;-77
2022/08/17 01:09:53;;;;;;;23.42;20.73;;;;;;;;;;4974241;28;20134;-77
2022/08/17 01:12:19;;;;;;;26.80;21.52;;;;;;;;;;4991814;28;20053;-77
2022/08/17 01:14:45;;;;;;;26.67;22.85;;;;;;;;;;4993318;28;20097;-77
2022/08/17 01:17:11;;;;;;;25.70;22.75;;;;;;;;;;4992027;28;20050;-77
2022/08/17 01:19:39;;;;;;;28.38;24.55;;;;;;;;;;4991613;28;20482;-77
2022/08/17 01:22:08;;;;;;;28.17;23.88;;;;;;;;;;4992291;28;20057;-77
2022/08/17 01:24:35;;;;;;;32.22;26.70;;;;;;;;;;4993495;28;20038;-77
2022/08/17 01:27:01;;;;;;;29.75;25.23;;;;;;;;;;4992084;28;20513;-77
2022/08/17 01:29:29;;;;;;;27.98;24.95;;;;;;;;;;4991528;28;20054;-77
2022/08/17 01:31:56;;;;;;;32.15;26.00;;;;;;;;;;4993727;28;20108;-77
2022/08/17 01:34:23;;;;;;;33.42;25.95;;;;;;;;;;4991911;28;20456;-77
2022/08/17 01:36:50;;;;;;;32.63;28.20;;;;;;;;;;4993461;28;20217;-77
2022/08/17 01:39:25;;;;;;;32.95;27.17;;;;;;;;;;4991683;28;20158;-77
2022/08/17 01:41:53;;;;;;;20.83;17.88;;;;;;;;;;4988948;28;20046;-77
2022/08/17 01:44:19;;;;;;;18.10;16.30;;;;;;;;;;4993532;28;20137;-77
2022/08/17 01:46:45;;;;;;;28.10;18.02;;;;;;;;;;4996933;28;20058;-77
2022/08/17 01:49:12;;;;;;;52.40;16.15;;;;;;;;;;4997326;28;20054;-77
2022/08/17 01:51:38;;;;;;;17.63;13.77;;;;;;;;;;4997111;28;20501;-77
2022/08/17 01:54:05;;;;;;;24.75;15.43;;;;;;;;;;4996959;28;20046;-77
2022/08/17 01:56:33;;;;;;;15.68;14.07;;;;;;;;;;4995550;28;20057;-77
2022/08/17 01:58:59;;;;;;;16.52;14.75;;;;;;;;;;4995569;28;20486;-77
2022/08/17 02:01:29;;;;;;;15.38;13.77;;;;;;;;;;4997083;28;20046;-77
2022/08/17 02:03:55;;;;;;;17.00;14.75;;;;;;;;;;4996868;28;20129;-77
2022/08/17 02:06:22;;;;;;;17.80;15.90;;;;;;;;;;4997165;28;20085;-77
2022/08/17 02:08:48;;;;;;;19.40;17.38;;;;;;;;;;4995398;28;20057;-77
2022/08/17 02:11:15;;;;;;;18.45;16.55;;;;;;;;;;4993780;28;20050;-77
2022/08/17 02:13:42;;;;;;;25.63;20.50;;;;;;;;;;4996862;28;20501;-77
2022/08/17 02:16:08;;;;;;;21.15;18.83;;;;;;;;;;4996836;28;20402;-77
2022/08/17 02:18:34;;;;;;;24.42;20.75;;;;;;;;;;4997063;28;20042;-77
2022/08/17 02:21:01;;;;;;;26.92;22.50;;;;;;;;;;4996566;28;20050;-77
2022/08/17 02:23:28;;;;;;;26.17;22.23;;;;;;;;;;4996692;28;20049;-77
2022/08/17 02:25:55;;;;;;;27.08;22.67;;;;;;;;;;4994648;28;20438;-77
2022/08/17 02:28:21;;;;;;;36.05;27.17;;;;;;;;;;4996732;28;20058;-77
2022/08/17 02:30:48;;;;;;;31.20;25.63;;;;;;;;;;4995019;28;20049;-77
2022/08/17 02:33:14;;;;;;;34.10;26.98;;;;;;;;;;4996300;28;20490;-77
2022/08/17 02:35:41;;;;;;;29.40;24.58;;;;;;;;;;4996237;28;20084;-77
2022/08/17 02:38:08;;;;;;;29.00;24.58;;;;;;;;;;4996445;28;20121;-77
2022/08/17 02:40:39;;;;;;;25.75;21.17;;;;;;;;;;4995152;28;20050;-77
2022/08/17 02:43:06;;;;;;;17.50;15.48;;;;;;;;;;4976962;28;20070;-77
2022/08/17 02:45:32;;;;;;;15.88;14.38;;;;;;;;;;4975593;28;20047;-77
2022/08/17 02:47:58;;;;;;;15.30;13.75;;;;;;;;;;4976617;28;20413;-77
2022/08/17 02:50:24;;;;;;;15.25;13.75;;;;;;;;;;4976541;28;20069;-77
2022/08/17 02:52:51;;;;;;;17.60;15.80;;;;;;;;;;4976202;28;20140;-77
2022/08/17 02:55:22;;;;;;;14.38;12.38;;;;;;;;;;4993840;28;20072;-77
2022/08/17 02:57:48;;;;;;;11.63;10.63;;;;;;;;;;4990985;28;20049;-77
2022/08/17 03:00:25;;;;;;;11.57;10.57;;;;;;;;;;4995831;28;20121;-77
2022/08/17 03:02:52;;;;;;;9.98;9.05;;;;;;;;;;4995578;28;20061;-77
2022/08/17 03:05:20;;;;;;;9.48;8.68;;;;;;;;;;4995323;28;20101;-77
2022/08/17 03:07:46;;;;;;;11.15;10.15;;;;;;;;;;4995768;28;20521;-77
2022/08/17 03:10:13;;;;;;;10.85;9.80;;;;;;;;;;4994989;28;20129;-77
2022/08/17 03:12:41;;;;;;;13.57;10.82;;;;;;;;;;4995103;28;20513;-77
2022/08/17 03:15:08;;;;;;;11.52;10.23;;;;;;;;;;4994329;28;20050;-77
2022/08/17 03:17:34;;;;;;;17.58;10.50;;;;;;;;;;4995927;28;20084;-77
2022/08/17 03:20:00;;;;;;;20.05;9.32;;;;;;;;;;4994628;28;20081;-77
2022/08/17 03:22:27;;;;;;;10.10;8.90;;;;;;;;;;4995536;28;20046;-77
2022/08/17 03:24:54;;;;;;;33.33;8.95;;;;;;;;;;4994644;28;20410;-77
2022/08/17 03:27:21;;;;;;;9.35;8.13;;;;;;;;;;4994529;28;20045;-77
2022/08/17 03:29:47;;;;;;;12.60;8.55;;;;;;;;;;4995156;28;20038;-78
2022/08/17 03:32:14;;;;;;;16.63;9.43;;;;;;;;;;4995243;28;20049;-77
2022/08/17 03:34:41;;;;;;;42.20;11.82;;;;;;;;;;4993949;28;20050;-77
2022/08/17 03:37:07;;;;;;;48.15;12.20;;;;;;;;;;4995352;28;20039;-77
2022/08/17 03:39:33;;;;;;;16.58;11.90;;;;;;;;;;4993339;28;20061;-77
2022/08/17 03:42:16;;;;;;;15.00;12.75;;;;;;;;;;4994605;28;20042;-77
2022/08/17 03:44:42;;;;;;;17.35;12.65;;;;;;;;;;4995153;28;20046;-77
2022/08/17 03:58:06;;;;;;;21.05;18.85;;;;;;;;;;4994179;28;20058;-77
2022/08/17 04:00:34;;;;;;;53.15;20.60;;;;;;;;;;4994919;28;20054;-77
2022/08/17 04:03:00;;;;;;;34.40;19.80;;;;;;;;;;4994631;28;20064;-77
2022/08/17 04:08:49;;;;;;;16.80;15.10;;;;;;;;;;4993236;28;20086;-77
2022/08/17 04:11:15;;;;;;;17.75;14.60;;;;;;;;;;4993803;28;20108;-77
2022/08/17 04:13:41;;;;;;;143.43;17.77;;;;;;;;;;4993104;28;20682;-77
2022/08/17 04:16:07;;;;;;;25.02;12.98;;;;;;;;;;4994435;28;20551;-77
2022/08/17 04:18:33;;;;;;;26.05;13.13;;;;;;;;;;4994658;28;20125;-77
2022/08/17 04:20:59;;;;;;;46.42;13.75;;;;;;;;;;4994296;28;20159;-77
2022/08/17 04:23:31;;;;;;;60.15;14.40;;;;;;;;;;4993528;28;20039;-77
2022/08/17 04:25:57;;;;;;;46.50;14.95;;;;;;;;;;4993531;28;20050;-77
2022/08/17 04:28:23;;;;;;;24.77;13.30;;;;;;;;;;4993339;28;20089;-77
2022/08/17 04:30:49;;;;;;;20.38;14.57;;;;;;;;;;4993290;28;20050;-77
2022/08/17 04:33:20;;;;;;;44.08;15.85;;;;;;;;;;4994050;28;20414;-77
2022/08/17 04:35:47;;;;;;;69.78;16.77;;;;;;;;;;4993424;28;20162;-77
2022/08/17 04:38:18;;;;;;;39.63;16.70;;;;;;;;;;4993415;28;20069;-77
2022/08/17 04:43:31;;;;;;;31.35;17.02;;;;;;;;;;4974815;28;20047;-77
2022/08/17 04:46:03;;;;;;;38.10;18.20;;;;;;;;;;4970831;28;20097;-77
2022/08/17 04:48:34;;;;;;;63.08;20.02;;;;;;;;;;4974584;28;20093;-77
2022/08/17 04:51:00;;;;;;;22.92;16.77;;;;;;;;;;4987859;28;20042;-77
2022/08/17 04:53:32;;;;;;;19.40;16.42;;;;;;;;;;4992517;28;20555;-77
2022/08/17 04:55:58;;;;;;;46.80;19.77;;;;;;;;;;4992834;28;20053;-77
2022/08/17 04:58:24;;;;;;;34.08;17.98;;;;;;;;;;4993773;28;20034;-77
2022/08/17 05:00:50;;;;;;;39.35;19.80;;;;;;;;;;4992487;28;20092;-77
2022/08/17 05:03:17;;;;;;;49.22;20.13;;;;;;;;;;4993492;28;20453;-77
2022/08/17 05:05:48;;;;;;;44.22;20.30;;;;;;;;;;4993512;28;20042;-77
2022/08/17 05:08:15;;;;;;;39.67;20.10;;;;;;;;;;4992962;28;20070;-77
2022/08/17 05:10:41;;;;;;;67.18;23.27;;;;;;;;;;4992932;28;20046;-77
2022/08/17 05:13:16;;;;;;;33.15;21.85;;;;;;;;;;4992262;28;20406;-77
2022/08/17 05:15:42;;;;;;;43.00;23.20;;;;;;;;;;4993437;28;20498;-77
2022/08/17 05:18:08;;;;;;;74.70;26.77;;;;;;;;;;4993365;28;20065;-77
2022/08/17 05:20:35;;;;;;;61.47;25.40;;;;;;;;;;4993795;28;20042;-77
2022/08/17 05:23:05;;;;;;;37.47;22.80;;;;;;;;;;4986796;28;20046;-81
2022/08/17 05:25:33;;;;;;;33.50;23.80;;;;;;;;;;4982304;28;20544;-77
2022/08/17 05:27:59;;;;;;;46.70;27.08;;;;;;;;;;4992866;28;20054;-77
2022/08/17 05:30:25;;;;;;;75.32;29.20;;;;;;;;;;4993504;28;20158;-77
2022/08/17 05:32:58;;;;;;;112.57;35.47;;;;;;;;;;4991588;28;20050;-77
2022/08/17 05:35:25;;;;;;;108.53;35.95;;;;;;;;;;4992402;28;20046;-77
2022/08/17 05:37:52;;;;;;;61.60;32.33;;;;;;;;;;4993206;28;20526;-77
2022/08/17 05:40:19;;;;;;;62.90;34.10;;;;;;;;;;4989221;28;20069;-77
2022/08/17 05:42:45;;;;;;;50.70;33.70;;;;;;;;;;4993187;28;20510;-77
2022/08/17 05:45:12;;;;;;;48.10;34.45;;;;;;;;;;4991922;28;20046;-78
2022/08/17 05:47:39;;;;;;;86.07;44.70;;;;;;;;;;4991067;28;20229;-77
2022/08/17 05:50:07;;;;;;;147.35;54.13;;;;;;;;;;4993418;28;20054;-77
2022/08/17 05:52:38;;;;;;;80.07;45.25;;;;;;;;;;4992516;28;20490;-77
2022/08/17 05:55:07;;;;;;;68.95;45.83;;;;;;;;;;5014115;28;20106;-74
2022/08/17 05:57:40;;;;;;;88.05;55.25;;;;;;;;;;4998294;28;20065;-75
2022/08/17 06:00:13;;;;;;;76.97;50.40;;;;;;;;;;5016169;28;20457;-74
2022/08/17 06:02:50;;;;;;;102.65;66.63;;;;;;;;;;5015995;28;20034;-75
2022/08/17 06:05:32;;;;;;;110.60;70.43;;;;;;;;;;5008040;28;20501;-75
2022/08/17 06:08:17;;;;;;;88.55;58.10;;;;;;;;;;4969028;28;20045;-76
2022/08/17 06:10:46;;;;;;;71.13;48.42;;;;;;;;;;4980173;28;20130;-76
2022/08/17 06:13:24;;;;;;;55.22;40.95;;;;;;;;;;4996118;28;20113;-76
2022/08/17 06:16:00;;;;;;;43.85;34.10;;;;;;;;;;5000734;28;20080;-76
2022/08/17 06:18:26;;;;;;;;;;;;;;;;;;4996463;28;20049;-77
2022/08/17 06:21:04;;;;;;;49.85;36.58;;;;;;;;;;4999689;28;19926;-76
2022/08/17 06:23:30;;;;;;;47.75;34.20;;;;;;;;;;5000187;28;20042;-76
2022/08/17 06:26:00;;;;;;;45.30;34.00;;;;;;;;;;5002723;28;20576;-75
2022/08/17 06:28:41;;;;;;;41.55;31.08;;;;;;;;;;5000847;28;20096;-76
2022/08/17 06:31:15;;;;;;;43.60;33.17;;;;;;;;;;5002842;28;20452;-76
2022/08/17 06:33:45;;;;;;;43.33;32.45;;;;;;;;;;5001961;28;20054;-76
2022/08/17 06:36:29;;;;;;;44.25;32.47;;;;;;;;;;5003272;28;20054;-76
2022/08/17 06:38:55;;;;;;;43.75;33.53;;;;;;;;;;5002802;28;20042;-76
2022/08/17 06:41:21;;;;;;;47.65;33.80;;;;;;;;;;5003363;28;20094;-76
2022/08/17 06:44:06;;;;;;;46.08;35.03;;;;;;;;;;5004475;28;20053;-76
2022/08/17 06:46:40;;;;;;;46.38;34.08;;;;;;;;;;5005773;28;20058;-76
2022/08/17 06:49:24;;;;;;;50.70;36.58;;;;;;;;;;5005358;28;20054;-75
2022/08/17 06:51:53;;;;;;;49.60;34.80;;;;;;;;;;5002665;28;20093;-77
2022/08/17 06:54:38;;;;;;;46.05;33.88;;;;;;;;;;5004316;28;20046;-76
2022/08/17 06:57:11;;;;;;;51.25;36.40;;;;;;;;;;4991796;28;20042;-76
2022/08/17 06:59:49;;;;;;;49.38;35.65;;;;;;;;;;4997625;28;20046;-76
2022/08/17 07:02:19;;;;;;;48.75;36.20;;;;;;;;;;4999963;28;20080;-77
2022/08/17 07:04:45;;;;;;;51.58;38.05;;;;;;;;;;5002058;28;20038;-75
2022/08/17 07:09:59;;;;;;;53.85;38.92;;;;;;;;;;5003214;28;20466;-75
2022/08/17 07:12:32;;;;;;;52.78;39.72;;;;;;;;;;5003485;28;20091;-77
2022/08/17 07:14:58;;;;;;;53.17;40.78;;;;;;;;;;5005653;28;20169;-75
2022/08/17 07:17:25;;;;;;;51.70;39.25;;;;;;;;;;5004886;28;20463;-75
2022/08/17 07:19:54;;;;;;;51.17;38.80;;;;;;;;;;5005328;28;20073;-75
2022/08/17 07:22:26;;;;;;;48.63;38.67;;;;;;;;;;5005520;28;20050;-75
2022/08/17 07:25:03;;;;;;;50.35;39.08;;;;;;;;;;5003486;28;20054;-76
2022/08/17 07:27:39;;;;;;;47.22;36.50;;;;;;;;;;4984711;28;20042;-75
2022/08/17 07:30:05;;;;;;;47.88;36.33;;;;;;;;;;4986979;28;20066;-75
2022/08/17 07:32:36;;;;;;;49.17;39.17;;;;;;;;;;4995651;28;20050;-76
2022/08/17 07:35:28;;;;;;;52.17;38.80;;;;;;;;;;5017589;28;20097;-79
2022/08/17 07:38:09;;;;;;;42.90;33.42;;;;;;;;;;5020248;28;20069;-79
2022/08/17 07:41:05;;;;;;;41.78;35.70;;;;;;;;;;5019469;28;20030;-79
2022/08/17 07:43:46;;;;;;;46.47;36.85;;;;;;;;;;5012640;28;20073;-80
2022/08/17 07:49:08;;;;;;;43.13;36.00;;;;;;;;;;5000181;28;20051;-75
2022/08/17 07:51:36;;;;;;;43.63;36.45;;;;;;;;;;4997940;28;20034;-77
2022/08/17 07:54:11;;;;;;;50.30;38.50;;;;;;;;;;5002375;28;20046;-78
2022/08/17 07:56:39;;;;;;;47.60;38.08;;;;;;;;;;5004713;28;20047;-75
2022/08/17 07:59:14;;;;;;;43.80;38.38;;;;;;;;;;4992989;28;20054;-75
2022/08/17 08:01:41;;;;;;;53.07;38.83;;;;;;;;;;5005409;28;20465;-75
2022/08/17 08:04:26;;;;;;;53.20;39.88;;;;;;;;;;5007442;28;20751;-75
2022/08/17 08:06:56;;;;;;;43.35;38.33;;;;;;;;;;5009900;28;20069;-76
2022/08/17 08:09:33;;;;;;;48.83;37.80;;;;;;;;;;5010370;28;20046;-75
2022/08/17 08:12:01;;;;;;;43.35;36.45;;;;;;;;;;5005876;28;20053;-75
2022/08/17 08:14:32;;;;;;;44.33;36.58;;;;;;;;;;4992048;28;20046;-75
2022/08/17 08:17:18;;;;;;;45.72;37.55;;;;;;;;;;5009417;28;20051;-75
2022/08/17 08:19:44;;;;;;;;;;;;;;;;;;5014468;28;20074;-74
2022/08/17 08:22:17;;;;;;;42.83;37.17;;;;;;;;;;4994277;28;19921;-75
2022/08/17 08:24:51;;;;;;;41.90;36.20;;;;;;;;;;5007564;28;20069;-76
2022/08/17 08:27:30;;;;;;;39.90;35.42;;;;;;;;;;4998897;28;20038;-75
2022/08/17 08:30:15;;;;;;;43.70;34.28;;;;;;;;;;5011719;28;20079;-76
2022/08/17 08:32:52;;;;;;;37.60;31.40;;;;;;;;;;5006806;28;20568;-75
2022/08/17 08:35:29;;;;;;;40.05;31.25;;;;;;;;;;4996341;28;20042;-75
2022/08/17 08:38:01;;;;;;;37.80;30.17;;;;;;;;;;5002127;28;20379;-75
2022/08/17 08:40:28;;;;;;;36.45;32.03;;;;;;;;;;5001804;28;20110;-76
2022/08/17 08:43:14;;;;;;;36.35;31.45;;;;;;;;;;5014521;28;20046;-78
2022/08/17 08:45:53;;;;;;;39.88;32.70;;;;;;;;;;5018437;28;20030;-78
2022/08/17 08:48:52;;;;;;;37.40;32.55;;;;;;;;;;5018498;28;20030;-79
2022/08/17 08:51:37;;;;;;;39.03;33.00;;;;;;;;;;5019184;28;20027;-80
2022/08/17 08:54:33;;;;;;;34.67;30.23;;;;;;;;;;5016957;28;20046;-80
2022/08/17 08:57:22;;;;;;;42.42;35.67;;;;;;;;;;4978102;28;20063;-79
2022/08/17 08:59:55;;;;;;;36.25;30.77;;;;;;;;;;4978692;28;20086;-79
2022/08/17 09:02:38;;;;;;;32.72;29.17;;;;;;;;;;4977405;28;20503;-76
2022/08/17 09:05:24;;;;;;;32.20;28.30;;;;;;;;;;4979134;28;20047;-78
2022/08/17 09:08:09;;;;;;;30.90;27.17;;;;;;;;;;4978345;28;20036;-78
2022/08/17 09:10:48;;;;;;;35.40;27.77;;;;;;;;;;4959146;28;20035;-78
2022/08/17 09:13:40;;;;;;;32.88;28.95;;;;;;;;;;4964170;28;20524;-76
2022/08/17 09:16:14;;;;;;;36.00;29.48;;;;;;;;;;4925051;28;20079;-76
2022/08/17 09:18:42;;;;;;;33.78;28.35;;;;;;;;;;4948901;29;20052;-73
2022/08/17 09:21:14;;;;;;;31.88;28.50;;;;;;;;;;4937590;29;20064;-74
2022/08/17 09:23:48;;;;;;;34.40;28.83;;;;;;;;;;4938385;29;20048;-75
2022/08/17 09:26:21;;;;;;;33.40;28.90;;;;;;;;;;4953124;29;20051;-75
2022/08/17 09:28:52;;;;;;;37.53;30.30;;;;;;;;;;4945780;29;20035;-76
2022/08/17 09:31:21;;;;;;;38.78;31.58;;;;;;;;;;4944899;28;20051;-75
2022/08/17 09:33:50;;;;;;;36.40;30.75;;;;;;;;;;4956709;28;20055;-76
2022/08/17 09:36:34;;;;;;;34.47;29.30;;;;;;;;;;4994521;28;20517;-75
2022/08/17 09:39:02;;;;;;;32.38;28.83;;;;;;;;;;4995835;28;20054;-75
2022/08/17 09:41:51;;;;;;;33.50;27.40;;;;;;;;;;4998436;28;20048;-76
2022/08/17 09:44:36;;;;;;;31.58;27.30;;;;;;;;;;4986978;28;20058;-76
2022/08/17 09:47:10;;;;;;;31.20;27.35;;;;;;;;;;4987643;28;20082;-77
2022/08/17 09:49:46;;;;;;;33.55;29.90;;;;;;;;;;4982985;28;20050;-77
2022/08/17 09:52:12;;;;;;;;;;;;;;;;;;4998124;28;20043;-78
2022/08/17 09:54:39;;;;;;;35.28;31.45;;;;;;;;;;5005275;28;19929;-77
2022/08/17 09:57:29;;;;;;;39.45;33.35;;;;;;;;;;5012465;28;20046;-77
2022/08/17 10:00:10;;;;;;;42.35;33.97;;;;;;;;;;5009402;28;20050;-78
2022/08/17 10:02:42;;;;;;;39.13;31.67;;;;;;;;;;5006150;28;20054;-77
2022/08/17 10:05:08;;;;;;;36.17;30.50;;;;;;;;;;5015411;28;20034;-80
2022/08/17 10:07:46;;;;;;;34.97;29.52;;;;;;;;;;4992912;28;20042;-77
2022/08/17 10:10:18;;;;;;;32.45;28.13;;;;;;;;;;4998847;28;20049;-77
2022/08/17 10:12:50;;;;;;;30.88;27.67;;;;;;;;;;4999884;28;20506;-77
2022/08/17 10:15:17;;;;;;;31.30;27.90;;;;;;;;;;4999219;28;20047;-76
2022/08/17 10:18:12;;;;;;;34.17;27.70;;;;;;;;;;4981257;28;20097;-77
2022/08/17 10:20:49;;;;;;;29.60;26.13;;;;;;;;;;5002534;28;20042;-77
2022/08/17 10:26:14;;;;;;;30.33;25.30;;;;;;;;;;5002750;28;20061;-78
2022/08/17 10:28:51;;;;;;;31.48;26.08;;;;;;;;;;5004073;28;20042;-78
2022/08/17 10:31:24;;;;;;;31.10;27.73;;;;;;;;;;4981790;28;20050;-77
2022/08/17 10:34:08;;;;;;;29.27;25.83;;;;;;;;;;5002592;28;20050;-77
2022/08/17 10:36:45;;;;;;;28.05;25.05;;;;;;;;;;5000732;28;20077;-77
2022/08/17 10:39:29;;;;;;;28.80;24.02;;;;;;;;;;4998853;28;20050;-76
2022/08/17 10:41:59;;;;;;;25.23;21.65;;;;;;;;;;4996304;28;20061;-77
2022/08/17 10:44:38;;;;;;;23.38;20.25;;;;;;;;;;4997830;28;20043;-77
2022/08/17 10:47:11;;;;;;;25.10;20.77;;;;;;;;;;4995757;28;20073;-77
2022/08/17 10:49:46;;;;;;;19.83;17.67;;;;;;;;;;4977699;28;20075;-77
2022/08/17 10:52:29;;;;;;;24.42;18.83;;;;;;;;;;4981210;28;20061;-77
2022/08/17 10:54:58;;;;;;;20.48;18.08;;;;;;;;;;4997053;28;20501;-77
2022/08/17 10:57:26;;;;;;;22.70;19.42;;;;;;;;;;4997997;28;20540;-76
2022/08/17 10:59:54;;;;;;;18.10;16.25;;;;;;;;;;4997606;28;20078;-77
2022/08/17 11:02:29;;;;;;;15.90;14.30;;;;;;;;;;4994646;28;20038;-77
2022/08/17 11:05:06;;;;;;;16.70;15.00;;;;;;;;;;4979588;28;20483;-76
2022/08/17 11:07:35;;;;;;;16.50;14.80;;;;;;;;;;4978440;28;20105;-76
2022/08/17 11:10:01;;;;;;;18.45;16.33;;;;;;;;;;4997282;28;20436;-77
2022/08/17 11:13:03;;;;;;;19.70;17.70;;;;;;;;;;4997070;28;20056;-77
2022/08/17 11:15:40;;;;;;;19.88;16.85;;;;;;;;;;4982884;28;20503;-77
2022/08/17 11:18:13;;;;;;;20.38;17.58;;;;;;;;;;4975985;28;20062;-77
2022/08/17 11:20:58;;;;;;;22.75;20.40;;;;;;;;;;4978641;28;20094;-77
2022/08/17 11:23:38;;;;;;;23.73;21.23;;;;;;;;;;4994165;28;20046;-76
2022/08/17 11:26:18;;;;;;;21.95;19.63;;;;;;;;;;4994894;28;20042;-77
2022/08/17 11:28:49;;;;;;;25.17;22.15;;;;;;;;;;4994667;28;20042;-76
2022/08/17 11:31:34;;;;;;;21.60;19.30;;;;;;;;;;4978067;28;20425;-76
2022/08/17 11:34:08;;;;;;;21.85;19.17;;;;;;;;;;4993546;28;20046;-76
2022/08/17 11:36:37;;;;;;;24.20;21.60;;;;;;;;;;4995430;28;20058;-76
2022/08/17 11:39:14;;;;;;;25.77;22.20;;;;;;;;;;4995226;28;20122;-77
2022/08/17 11:41:45;;;;;;;25.88;22.88;;;;;;;;;;4978931;28;20061;-76
2022/08/17 11:44:14;;;;;;;23.75;20.45;;;;;;;;;;4995542;28;20093;-76
2022/08/17 11:52:37;;;;;;;17.00;15.30;;;;;;;;;;4997409;28;20046;-76
2022/08/17 11:55:04;;;;;;;17.98;16.17;;;;;;;;;;4998877;28;20066;-76
2022/08/17 11:57:30;;;;;;;18.55;14.95;;;;;;;;;;4998899;28;20050;-76
2022/08/17 12:00:02;;;;;;;14.50;12.77;;;;;;;;;;4999316;28;20073;-76
2022/08/17 12:02:33;;;;;;;15.65;13.75;;;;;;;;;;4998252;28;20462;-77
2022/08/17 12:05:01;;;;;;;16.33;13.75;;;;;;;;;;4999160;28;20057;-76
2022/08/17 12:07:31;;;;;;;16.05;13.75;;;;;;;;;;4999130;28;20134;-76
2022/08/17 12:09:58;;;;;;;17.02;15.23;;;;;;;;;;4994232;28;20047;-76
2022/08/17 12:12:34;;;;;;;17.67;13.68;;;;;;;;;;4998048;28;20038;-75
2022/08/17 12:15:00;;;;;;;;;;;;;;;;;;5000473;28;20081;-76
2022/08/17 12:17:27;;;;;;;17.55;14.55;;;;;;;;;;5000333;28;19923;-75
2022/08/17 12:19:54;;;;;;;15.23;13.77;;;;;;;;;;4998258;28;20110;-75
2022/08/17 12:22:41;;;;;;;16.52;13.85;;;;;;;;;;5003329;28;20047;-79
2022/08/17 12:25:13;;;;;;;15.88;12.93;;;;;;;;;;4983984;28;20050;-81
2022/08/17 12:27:44;;;;;;;17.48;14.27;;;;;;;;;;5001668;28;20086;-75
2022/08/17 12:30:12;;;;;;;15.52;12.68;;;;;;;;;;5008374;28;20050;-75
2022/08/17 12:32:39;;;;;;;14.75;13.15;;;;;;;;;;5008083;28;20457;-76
2022/08/17 12:35:06;;;;;;;17.50;14.98;;;;;;;;;;5007222;28;20050;-76
2022/08/17 12:37:34;;;;;;;15.43;13.57;;;;;;;;;;5007500;28;20062;-76
2022/08/17 12:40:18;;;;;;;16.80;13.63;;;;;;;;;;5004986;28;20057;-75
2022/08/17 12:42:53;;;;;;;16.17;13.48;;;;;;;;;;4988630;28;20038;-76
2022/08/17 12:45:33;;;;;;;16.13;14.37;;;;;;;;;;5002328;28;20085;-76
2022/08/17 12:48:06;;;;;;;15.75;14.02;;;;;;;;;;5006488;28;20080;-76
2022/08/17 12:50:38;;;;;;;16.90;14.65;;;;;;;;;;4998541;28;20095;-76
2022/08/17 12:53:10;;;;;;;16.65;14.77;;;;;;;;;;5010638;28;20101;-75
2022/08/17 12:55:37;;;;;;;17.13;14.38;;;;;;;;;;5010897;28;20049;-75
2022/08/17 12:58:04;;;;;;;15.30;13.70;;;;;;;;;;5007191;28;20048;-76
2022/08/17 13:00:36;;;;;;;16.13;14.48;;;;;;;;;;5002548;28;20043;-75
2022/08/17 13:03:04;;;;;;;15.73;14.23;;;;;;;;;;4988039;28;20046;-76
2022/08/17 13:05:38;;;;;;;17.90;15.48;;;;;;;;;;4999491;28;20053;-75
2022/08/17 13:08:13;;;;;;;15.85;14.20;;;;;;;;;;4997750;28;20148;-75
2022/08/17 13:10:39;;;;;;;18.58;13.98;;;;;;;;;;4997677;28;20129;-75
2022/08/17 13:13:22;;;;;;;19.25;15.23;;;;;;;;;;4997002;28;20506;-75
2022/08/17 13:15:53;;;;;;;16.88;15.18;;;;;;;;;;4997049;28;20046;-76
2022/08/17 13:18:40;;;;;;;16.98;14.93;;;;;;;;;;4996418;28;20504;-76
2022/08/17 13:21:18;;;;;;;19.77;13.95;;;;;;;;;;4996290;28;20038;-75
2022/08/17 13:24:02;;;;;;;17.73;15.02;;;;;;;;;;4994832;28;20105;-75
2022/08/17 13:26:33;;;;;;;16.27;14.57;;;;;;;;;;4995567;28;20113;-75
2022/08/17 13:28:59;;;;;;;17.38;14.18;;;;;;;;;;4997302;28;20057;-75
2022/08/17 13:31:29;;;;;;;16.95;13.80;;;;;;;;;;4997621;28;20053;-74
2022/08/17 13:34:13;;;;;;;19.30;15.07;;;;;;;;;;4996455;28;20457;-75
2022/08/17 13:36:39;;;;;;;14.48;12.93;;;;;;;;;;4997379;28;20486;-75
2022/08/17 13:39:19;;;;;;;15.10;12.82;;;;;;;;;;4996124;28;20054;-75
2022/08/17 13:41:46;;;;;;;15.57;13.20;;;;;;;;;;4998528;28;20042;-75
2022/08/17 13:44:31;;;;;;;17.98;13.07;;;;;;;;;;5001254;28;20048;-75
2022/08/17 13:46:58;;;;;;;17.58;13.38;;;;;;;;;;5002388;28;20085;-75
2022/08/17 13:49:25;;;;;;;16.45;13.50;;;;;;;;;;5002962;28;20118;-75
2022/08/17 13:51:51;;;;;;;15.00;13.23;;;;;;;;;;5002268;28;20125;-75
2022/08/17 13:54:20;;;;;;;16.45;14.70;;;;;;;;;;5001825;28;20097;-75
2022/08/17 13:57:07;;;;;;;19.27;14.88;;;;;;;;;;5001653;28;20501;-76
2022/08/17 13:59:33;;;;;;;16.77;14.27;;;;;;;;;;4996390;28;20054;-75
2022/08/17 14:01:59;;;;;;;13.90;12.50;;;;;;;;;;5002626;28;20046;-75
2022/08/17 14:04:27;;;;;;;14.20;12.77;;;;;;;;;;5003474;28;20042;-75
2022/08/17 14:06:59;;;;;;;13.98;12.55;;;;;;;;;;5012407;28;20093;-80
2022/08/17 14:09:27;;;;;;;14.65;12.68;;;;;;;;;;5021410;28;20085;-78
2022/08/17 14:11:54;;;;;;;14.57;13.02;;;;;;;;;;5020089;28;20042;-79
2022/08/17 14:14:28;;;;;;;15.75;11.45;;;;;;;;;;5021390;28;20030;-78
2022/08/17 14:16:56;;;;;;;12.43;10.90;;;;;;;;;;5011768;28;20413;-79
2022/08/17 14:19:22;;;;;;;12.20;10.52;;;;;;;;;;5018638;28;20056;-80
2022/08/17 14:21:57;;;;;;;11.77;10.57;;;;;;;;;;5020803;28;20038;-78
2022/08/17 14:24:23;;;;;;;12.43;11.15;;;;;;;;;;5022038;28;20054;-80
2022/08/17 14:26:53;;;;;;;12.43;10.63;;;;;;;;;;5018812;28;20072;-78
2022/08/17 14:29:20;;;;;;;11.40;10.30;;;;;;;;;;5017900;28;20023;-79
2022/08/17 14:31:50;;;;;;;12.23;11.00;;;;;;;;;;5020225;28;20022;-79
2022/08/17 14:34:16;;;;;;;15.65;11.82;;;;;;;;;;5002071;28;20027;-78
2022/08/17 14:36:45;;;;;;;12.23;10.93;;;;;;;;;;5024115;28;20055;-79
2022/08/17 14:39:12;;;;;;;12.05;10.65;;;;;;;;;;5001283;28;20054;-79
2022/08/17 14:41:39;;;;;;;12.80;10.63;;;;;;;;;;5020193;28;20023;-79
2022/08/17 14:44:11;;;;;;;12.60;10.63;;;;;;;;;;5004682;28;20042;-78
2022/08/17 14:46:44;;;;;;;12.95;10.68;;;;;;;;;;5015048;28;20059;-79
2022/08/17 14:49:14;;;;;;;12.02;9.52;;;;;;;;;;5021463;28;20039;-78
2022/08/17 14:51:40;;;;;;;11.80;9.35;;;;;;;;;;5020496;28;20030;-79
2022/08/17 14:54:07;;;;;;;11.50;10.18;;;;;;;;;;5017124;28;20146;-79
2022/08/17 14:56:33;;;;;;;12.65;10.10;;;;;;;;;;5021307;28;20038;-79
2022/08/17 14:58:59;;;;;;;13.82;11.15;;;;;;;;;;5019966;28;20022;-79
2022/08/17 15:01:26;;;;;;;11.75;10.00;;;;;;;;;;5020833;28;20126;-79
2022/08/17 15:03:52;;;;;;;12.77;10.45;;;;;;;;;;5019307;28;20023;-79
2022/08/17 15:06:22;;;;;;;12.10;10.70;;;;;;;;;;5004577;28;20034;-80
2022/08/17 15:08:48;;;;;;;12.05;10.80;;;;;;;;;;5018643;28;20041;-78
2022/08/17 15:11:15;;;;;;;13.40;10.55;;;;;;;;;;5019844;28;20050;-78
2022/08/17 15:13:41;;;;;;;12.75;11.27;;;;;;;;;;5019784;28;20038;-78